sensor_id;sensor_type;location;lat;lon;timestamp;temperature;humidity
28336;DHT22;15592;53.656;7.276;2024-03-02T00:00:15;6.20;99.90
28336;DHT22;15592;53.656;7.276;2024-03-02T00:02:45;6.20;99.90
28336;DHT22;15592;53.656;7.276;2024-03-02T00:05:12;6.10;99.90
28336;DHT22;15592;53.656;7.276;2024-03-02T00:07:41;6.10;99.90
28336;DHT22;15592;53.656;7.276;2024-03-02T00:10:11;6.10;99.90
28336;DHT22;15592;53.656;7.276;2024-03-02T00:12:38;6.10;99.90
28336;DHT22;15592;53.656;7.276;2024-03-02T00:17:54;6.10;99.90
28336;DHT22;15592;53.656;7.276;2024-03-02T00:20:22;6.00;99.90
28336;DHT22;15592;53.656;7.276;2024-03-02T00:22:48;6.00;99.90
28336;DHT22;15592;53.656;7.276;2024-03-02T00:25:14;6.00;99.90
28336;DHT22;15592;53.656;7.276;2024-03-02T00:27:40;6.00;99.90
28336;DHT22;15592;53.656;7.276;2024-03-02T00:33:10;5.90;99.90
28336;DHT22;15592;53.656;7.276;2024-03-02T00:35:36;5.90;99.90
28336;DHT22;15592;53.656;7.276;2024-03-02T00:38:05;5.90;99.90
28336;DHT22;15592;53.656;7.276;2024-03-02T00:40:31;5.90;99.90
28336;DHT22;15592;53.656;7.276;2024-03-02T00:42:57;5.80;99.90
28336;DHT22;15592;53.656;7.276;2024-03-02T00:45:23;5.80;99.90
28336;DHT22;15592;53.656;7.276;2024-03-02T00:47:50;5.80;99.90
28336;DHT22;15592;53.656;7.276;2024-03-02T00:50:16;5.80;99.90
28336;DHT22;15592;53.656;7.276;2024-03-02T00:52:41;5.80;99.90
28336;DHT22;15592;53.656;7.276;2024-03-02T00:55:08;5.80;99.90
28336;DHT22;15592;53.656;7.276;2024-03-02T00:57:34;5.70;99.90
28336;DHT22;15592;53.656;7.276;2024-03-02T01:00:00;5.70;99.90
28336;DHT22;15592;53.656;7.276;2024-03-02T01:02:26;5.70;99.90
28336;DHT22;15592;53.656;7.276;2024-03-02T01:04:52;5.80;99.90
28336;DHT22;15592;53.656;7.276;2024-03-02T01:07:17;5.80;99.90
28336;DHT22;15592;53.656;7.276;2024-03-02T01:09:43;5.80;99.90
28336;DHT22;15592;53.656;7.276;2024-03-02T01:12:09;5.70;99.90
28336;DHT22;15592;53.656;7.276;2024-03-02T01:14:34;5.70;99.90
28336;DHT22;15592;53.656;7.276;2024-03-02T01:17:00;5.70;99.90
28336;DHT22;15592;53.656;7.276;2024-03-02T01:19:29;5.70;99.90
28336;DHT22;15592;53.656;7.276;2024-03-02T01:21:54;5.70;99.90
28336;DHT22;15592;53.656;7.276;2024-03-02T01:24:20;5.70;99.90
28336;DHT22;15592;53.656;7.276;2024-03-02T01:26:45;5.70;99.90
28336;DHT22;15592;53.656;7.276;2024-03-02T01:29:11;5.70;99.90
28336;DHT22;15592;53.656;7.276;2024-03-02T01:31:36;5.70;99.90
28336;DHT22;15592;53.656;7.276;2024-03-02T01:34:02;5.70;99.90
28336;DHT22;15592;53.656;7.276;2024-03-02T01:36:28;5.80;99.90
28336;DHT22;15592;53.656;7.276;2024-03-02T01:38:53;5.80;99.90
28336;DHT22;15592;53.656;7.276;2024-03-02T01:41:19;5.80;99.90
28336;DHT22;15592;53.656;7.276;2024-03-02T01:43:44;5.80;99.90
28336;DHT22;15592;53.656;7.276;2024-03-02T01:46:10;5.80;99.90
28336;DHT22;15592;53.656;7.276;2024-03-02T01:48:35;5.90;99.90
28336;DHT22;15592;53.656;7.276;2024-03-02T01:51:01;5.90;99.90
28336;DHT22;15592;53.656;7.276;2024-03-02T01:53:27;5.90;99.90
28336;DHT22;15592;53.656;7.276;2024-03-02T01:55:53;6.00;99.90
28336;DHT22;15592;53.656;7.276;2024-03-02T01:58:19;6.00;99.90
28336;DHT22;15592;53.656;7.276;2024-03-02T02:00:44;6.10;99.90
28336;DHT22;15592;53.656;7.276;2024-03-02T02:03:10;6.10;99.90
28336;DHT22;15592;53.656;7.276;2024-03-02T02:05:36;6.10;99.90
28336;DHT22;15592;53.656;7.276;2024-03-02T02:08:02;6.20;99.90
28336;DHT22;15592;53.656;7.276;2024-03-02T02:10:27;6.20;99.90
28336;DHT22;15592;53.656;7.276;2024-03-02T02:12:53;6.20;99.90
28336;DHT22;15592;53.656;7.276;2024-03-02T02:17:47;6.10;99.90
28336;DHT22;15592;53.656;7.276;2024-03-02T02:20:12;6.10;99.90
28336;DHT22;15592;53.656;7.276;2024-03-02T02:22:39;6.20;99.90
28336;DHT22;15592;53.656;7.276;2024-03-02T02:25:05;6.10;99.90
28336;DHT22;15592;53.656;7.276;2024-03-02T02:27:31;6.10;99.90
28336;DHT22;15592;53.656;7.276;2024-03-02T02:29:56;6.10;99.90
28336;DHT22;15592;53.656;7.276;2024-03-02T02:32:22;6.10;99.90
28336;DHT22;15592;53.656;7.276;2024-03-02T02:34:52;6.00;99.90
28336;DHT22;15592;53.656;7.276;2024-03-02T02:37:18;6.00;99.90
28336;DHT22;15592;53.656;7.276;2024-03-02T02:39:43;5.90;99.90
28336;DHT22;15592;53.656;7.276;2024-03-02T02:42:09;5.90;99.90
28336;DHT22;15592;53.656;7.276;2024-03-02T02:44:34;5.90;99.90
28336;DHT22;15592;53.656;7.276;2024-03-02T02:47:01;5.90;99.90
28336;DHT22;15592;53.656;7.276;2024-03-02T02:49:26;5.90;99.90
28336;DHT22;15592;53.656;7.276;2024-03-02T02:51:52;5.90;99.90
28336;DHT22;15592;53.656;7.276;2024-03-02T02:54:17;5.90;99.90
28336;DHT22;15592;53.656;7.276;2024-03-02T02:56:43;6.00;99.90
28336;DHT22;15592;53.656;7.276;2024-03-02T02:59:08;6.00;99.90
28336;DHT22;15592;53.656;7.276;2024-03-02T03:01:34;6.00;99.90
28336;DHT22;15592;53.656;7.276;2024-03-02T03:04:00;6.10;99.90
28336;DHT22;15592;53.656;7.276;2024-03-02T03:06:25;6.10;99.90
28336;DHT22;15592;53.656;7.276;2024-03-02T03:08:51;6.10;99.90
28336;DHT22;15592;53.656;7.276;2024-03-02T03:11:16;6.10;99.90
28336;DHT22;15592;53.656;7.276;2024-03-02T03:13:42;6.10;99.90
28336;DHT22;15592;53.656;7.276;2024-03-02T03:16:08;6.10;99.90
28336;DHT22;15592;53.656;7.276;2024-03-02T03:18:33;6.10;99.90
28336;DHT22;15592;53.656;7.276;2024-03-02T03:20:59;6.10;99.90
28336;DHT22;15592;53.656;7.276;2024-03-02T03:23:24;6.10;99.90
28336;DHT22;15592;53.656;7.276;2024-03-02T03:25:51;6.10;99.90
28336;DHT22;15592;53.656;7.276;2024-03-02T03:28:16;6.10;99.90
28336;DHT22;15592;53.656;7.276;2024-03-02T03:30:42;6.10;99.90
28336;DHT22;15592;53.656;7.276;2024-03-02T03:33:08;6.10;99.90
28336;DHT22;15592;53.656;7.276;2024-03-02T03:35:34;6.10;99.90
28336;DHT22;15592;53.656;7.276;2024-03-02T03:38:00;6.00;99.90
28336;DHT22;15592;53.656;7.276;2024-03-02T03:40:27;6.00;99.90
28336;DHT22;15592;53.656;7.276;2024-03-02T03:42:52;6.00;99.90
28336;DHT22;15592;53.656;7.276;2024-03-02T03:45:18;6.00;99.90
28336;DHT22;15592;53.656;7.276;2024-03-02T03:47:44;6.00;99.90
28336;DHT22;15592;53.656;7.276;2024-03-02T03:50:09;6.00;99.90
28336;DHT22;15592;53.656;7.276;2024-03-02T03:52:35;5.90;99.90
28336;DHT22;15592;53.656;7.276;2024-03-02T03:55:01;6.00;99.90
28336;DHT22;15592;53.656;7.276;2024-03-02T03:57:27;6.00;99.90
28336;DHT22;15592;53.656;7.276;2024-03-02T03:59:53;6.00;99.90
28336;DHT22;15592;53.656;7.276;2024-03-02T04:02:19;6.10;99.90
28336;DHT22;15592;53.656;7.276;2024-03-02T04:04:45;6.10;99.90
28336;DHT22;15592;53.656;7.276;2024-03-02T04:07:10;6.10;99.90
28336;DHT22;15592;53.656;7.276;2024-03-02T04:09:36;6.10;99.90
28336;DHT22;15592;53.656;7.276;2024-03-02T04:12:02;6.10;99.90
28336;DHT22;15592;53.656;7.276;2024-03-02T04:14:27;6.10;99.90
28336;DHT22;15592;53.656;7.276;2024-03-02T04:16:53;6.10;99.90
28336;DHT22;15592;53.656;7.276;2024-03-02T04:19:18;6.10;99.90
28336;DHT22;15592;53.656;7.276;2024-03-02T04:21:44;6.00;99.90
28336;DHT22;15592;53.656;7.276;2024-03-02T04:24:09;6.00;99.90
28336;DHT22;15592;53.656;7.276;2024-03-02T04:26:35;6.00;99.90
28336;DHT22;15592;53.656;7.276;2024-03-02T04:29:00;6.00;99.90
28336;DHT22;15592;53.656;7.276;2024-03-02T04:31:27;6.10;99.90
28336;DHT22;15592;53.656;7.276;2024-03-02T04:33:52;6.00;99.90
28336;DHT22;15592;53.656;7.276;2024-03-02T04:36:19;6.00;99.90
28336;DHT22;15592;53.656;7.276;2024-03-02T04:38:45;6.00;99.90
28336;DHT22;15592;53.656;7.276;2024-03-02T04:41:10;6.00;99.90
28336;DHT22;15592;53.656;7.276;2024-03-02T04:43:36;5.90;99.90
28336;DHT22;15592;53.656;7.276;2024-03-02T04:46:02;5.90;99.90
28336;DHT22;15592;53.656;7.276;2024-03-02T04:48:27;5.90;99.90
28336;DHT22;15592;53.656;7.276;2024-03-02T04:50:53;5.90;99.90
28336;DHT22;15592;53.656;7.276;2024-03-02T04:53:19;5.80;99.90
28336;DHT22;15592;53.656;7.276;2024-03-02T04:55:44;5.80;99.90
28336;DHT22;15592;53.656;7.276;2024-03-02T04:58:19;5.70;99.90
28336;DHT22;15592;53.656;7.276;2024-03-02T05:00:45;5.70;99.90
28336;DHT22;15592;53.656;7.276;2024-03-02T05:03:12;5.70;99.90
28336;DHT22;15592;53.656;7.276;2024-03-02T05:05:38;5.60;99.90
28336;DHT22;15592;53.656;7.276;2024-03-02T05:08:04;5.70;99.90
28336;DHT22;15592;53.656;7.276;2024-03-02T05:10:30;5.60;99.90
28336;DHT22;15592;53.656;7.276;2024-03-02T05:12:55;5.60;99.90
28336;DHT22;15592;53.656;7.276;2024-03-02T05:15:22;5.60;99.90
28336;DHT22;15592;53.656;7.276;2024-03-02T05:17:48;5.60;99.90
28336;DHT22;15592;53.656;7.276;2024-03-02T05:20:13;5.60;99.90
28336;DHT22;15592;53.656;7.276;2024-03-02T05:22:39;5.50;99.90
28336;DHT22;15592;53.656;7.276;2024-03-02T05:25:06;5.50;99.90
28336;DHT22;15592;53.656;7.276;2024-03-02T05:27:32;5.50;99.90
28336;DHT22;15592;53.656;7.276;2024-03-02T05:29:58;5.40;99.90
28336;DHT22;15592;53.656;7.276;2024-03-02T05:32:24;5.40;99.90
28336;DHT22;15592;53.656;7.276;2024-03-02T05:34:49;5.40;99.90
28336;DHT22;15592;53.656;7.276;2024-03-02T05:37:16;5.40;99.90
28336;DHT22;15592;53.656;7.276;2024-03-02T05:39:42;5.30;99.90
28336;DHT22;15592;53.656;7.276;2024-03-02T05:42:09;5.30;99.90
28336;DHT22;15592;53.656;7.276;2024-03-02T05:44:37;5.30;99.90
28336;DHT22;15592;53.656;7.276;2024-03-02T05:47:03;5.30;99.90
28336;DHT22;15592;53.656;7.276;2024-03-02T05:49:29;5.30;99.90
28336;DHT22;15592;53.656;7.276;2024-03-02T05:51:55;5.30;99.90
28336;DHT22;15592;53.656;7.276;2024-03-02T05:54:21;5.20;99.90
28336;DHT22;15592;53.656;7.276;2024-03-02T05:56:46;5.20;99.90
28336;DHT22;15592;53.656;7.276;2024-03-02T05:59:12;5.20;99.90
28336;DHT22;15592;53.656;7.276;2024-03-02T06:01:45;5.20;99.90
28336;DHT22;15592;53.656;7.276;2024-03-02T06:04:11;5.20;99.90
28336;DHT22;15592;53.656;7.276;2024-03-02T06:06:37;5.20;99.90
28336;DHT22;15592;53.656;7.276;2024-03-02T06:09:04;5.20;99.90
28336;DHT22;15592;53.656;7.276;2024-03-02T06:11:39;5.10;99.90
28336;DHT22;15592;53.656;7.276;2024-03-02T06:14:05;5.20;99.90
28336;DHT22;15592;53.656;7.276;2024-03-02T06:16:32;5.10;99.90
28336;DHT22;15592;53.656;7.276;2024-03-02T06:18:57;5.10;99.90
28336;DHT22;15592;53.656;7.276;2024-03-02T06:21:24;5.20;99.90
28336;DHT22;15592;53.656;7.276;2024-03-02T06:23:49;5.10;99.90
28336;DHT22;15592;53.656;7.276;2024-03-02T06:26:15;5.10;99.90
28336;DHT22;15592;53.656;7.276;2024-03-02T06:28:41;5.00;99.90
28336;DHT22;15592;53.656;7.276;2024-03-02T06:31:06;5.00;99.90
28336;DHT22;15592;53.656;7.276;2024-03-02T06:33:32;5.00;99.90
28336;DHT22;15592;53.656;7.276;2024-03-02T06:35:58;5.00;99.90
28336;DHT22;15592;53.656;7.276;2024-03-02T06:38:23;5.00;99.90
28336;DHT22;15592;53.656;7.276;2024-03-02T06:40:49;5.00;99.90
28336;DHT22;15592;53.656;7.276;2024-03-02T06:43:15;5.00;99.90
28336;DHT22;15592;53.656;7.276;2024-03-02T06:45:41;5.00;99.90
28336;DHT22;15592;53.656;7.276;2024-03-02T06:48:07;5.10;99.90
28336;DHT22;15592;53.656;7.276;2024-03-02T06:50:32;5.10;99.90
28336;DHT22;15592;53.656;7.276;2024-03-02T06:52:58;5.00;99.90
28336;DHT22;15592;53.656;7.276;2024-03-02T06:55:24;5.00;99.90
28336;DHT22;15592;53.656;7.276;2024-03-02T06:57:50;5.00;99.90
28336;DHT22;15592;53.656;7.276;2024-03-02T07:00:16;5.10;99.90
28336;DHT22;15592;53.656;7.276;2024-03-02T07:02:43;5.10;99.90
28336;DHT22;15592;53.656;7.276;2024-03-02T07:05:10;5.10;99.90
28336;DHT22;15592;53.656;7.276;2024-03-02T07:07:35;5.10;99.90
28336;DHT22;15592;53.656;7.276;2024-03-02T07:10:05;5.10;99.90
28336;DHT22;15592;53.656;7.276;2024-03-02T07:12:31;5.10;99.90
28336;DHT22;15592;53.656;7.276;2024-03-02T07:14:57;5.10;99.90
28336;DHT22;15592;53.656;7.276;2024-03-02T07:17:28;5.10;99.90
28336;DHT22;15592;53.656;7.276;2024-03-02T07:19:54;5.10;99.90
28336;DHT22;15592;53.656;7.276;2024-03-02T07:22:20;5.10;99.90
28336;DHT22;15592;53.656;7.276;2024-03-02T07:24:45;5.20;99.90
28336;DHT22;15592;53.656;7.276;2024-03-02T07:27:12;5.30;99.90
28336;DHT22;15592;53.656;7.276;2024-03-02T07:29:38;5.40;99.90
28336;DHT22;15592;53.656;7.276;2024-03-02T07:32:06;5.50;99.90
28336;DHT22;15592;53.656;7.276;2024-03-02T07:34:32;5.50;99.90
28336;DHT22;15592;53.656;7.276;2024-03-02T07:36:57;5.60;99.90
28336;DHT22;15592;53.656;7.276;2024-03-02T07:39:24;5.70;99.90
28336;DHT22;15592;53.656;7.276;2024-03-02T07:41:49;5.80;99.90
28336;DHT22;15592;53.656;7.276;2024-03-02T07:44:15;5.80;99.90
28336;DHT22;15592;53.656;7.276;2024-03-02T07:46:45;5.90;99.90
28336;DHT22;15592;53.656;7.276;2024-03-02T07:49:15;6.00;99.90
28336;DHT22;15592;53.656;7.276;2024-03-02T07:51:41;6.00;99.90
28336;DHT22;15592;53.656;7.276;2024-03-02T07:54:07;6.10;99.90
28336;DHT22;15592;53.656;7.276;2024-03-02T07:56:33;6.20;99.90
28336;DHT22;15592;53.656;7.276;2024-03-02T07:58:59;6.20;99.90
28336;DHT22;15592;53.656;7.276;2024-03-02T08:01:30;6.30;99.90
28336;DHT22;15592;53.656;7.276;2024-03-02T08:03:59;6.30;99.90
28336;DHT22;15592;53.656;7.276;2024-03-02T08:06:26;6.40;99.90
28336;DHT22;15592;53.656;7.276;2024-03-02T08:09:00;6.50;99.90
28336;DHT22;15592;53.656;7.276;2024-03-02T08:11:26;6.60;99.90
28336;DHT22;15592;53.656;7.276;2024-03-02T08:13:56;6.70;99.90
28336;DHT22;15592;53.656;7.276;2024-03-02T08:16:23;6.80;99.90
28336;DHT22;15592;53.656;7.276;2024-03-02T08:18:49;6.90;99.90
28336;DHT22;15592;53.656;7.276;2024-03-02T08:21:15;7.00;99.90
28336;DHT22;15592;53.656;7.276;2024-03-02T08:23:42;7.00;99.90
28336;DHT22;15592;53.656;7.276;2024-03-02T08:26:08;7.00;99.90
28336;DHT22;15592;53.656;7.276;2024-03-02T08:28:34;7.00;99.90
28336;DHT22;15592;53.656;7.276;2024-03-02T08:30:59;7.00;99.90
28336;DHT22;15592;53.656;7.276;2024-03-02T08:33:25;7.10;99.90
28336;DHT22;15592;53.656;7.276;2024-03-02T08:35:51;7.10;99.90
28336;DHT22;15592;53.656;7.276;2024-03-02T08:38:17;7.10;99.90
28336;DHT22;15592;53.656;7.276;2024-03-02T08:40:42;7.10;99.90
28336;DHT22;15592;53.656;7.276;2024-03-02T08:43:08;7.20;99.90
28336;DHT22;15592;53.656;7.276;2024-03-02T08:45:34;7.20;99.90
28336;DHT22;15592;53.656;7.276;2024-03-02T08:48:00;7.30;99.90
28336;DHT22;15592;53.656;7.276;2024-03-02T08:50:26;7.30;99.90
28336;DHT22;15592;53.656;7.276;2024-03-02T08:52:51;7.40;99.90
28336;DHT22;15592;53.656;7.276;2024-03-02T08:55:20;7.50;99.90
28336;DHT22;15592;53.656;7.276;2024-03-02T08:57:45;7.60;99.90
28336;DHT22;15592;53.656;7.276;2024-03-02T09:00:11;7.70;99.90
28336;DHT22;15592;53.656;7.276;2024-03-02T09:02:37;7.80;99.90
28336;DHT22;15592;53.656;7.276;2024-03-02T09:05:04;7.90;99.90
28336;DHT22;15592;53.656;7.276;2024-03-02T09:07:30;7.90;99.90
28336;DHT22;15592;53.656;7.276;2024-03-02T09:09:56;8.00;99.90
28336;DHT22;15592;53.656;7.276;2024-03-02T09:12:21;8.10;99.90
28336;DHT22;15592;53.656;7.276;2024-03-02T09:14:47;8.10;99.90
28336;DHT22;15592;53.656;7.276;2024-03-02T09:17:13;8.10;99.90
28336;DHT22;15592;53.656;7.276;2024-03-02T09:19:39;8.10;99.90
28336;DHT22;15592;53.656;7.276;2024-03-02T09:22:05;8.20;99.90
28336;DHT22;15592;53.656;7.276;2024-03-02T09:24:31;8.20;99.90
28336;DHT22;15592;53.656;7.276;2024-03-02T09:26:58;8.20;99.90
28336;DHT22;15592;53.656;7.276;2024-03-02T09:29:24;8.30;99.90
28336;DHT22;15592;53.656;7.276;2024-03-02T09:31:50;8.40;99.90
28336;DHT22;15592;53.656;7.276;2024-03-02T09:34:16;8.60;99.90
28336;DHT22;15592;53.656;7.276;2024-03-02T09:36:42;8.70;99.90
28336;DHT22;15592;53.656;7.276;2024-03-02T09:39:09;8.80;99.90
28336;DHT22;15592;53.656;7.276;2024-03-02T09:41:37;8.90;99.90
28336;DHT22;15592;53.656;7.276;2024-03-02T09:44:04;9.00;99.90
28336;DHT22;15592;53.656;7.276;2024-03-02T09:46:30;9.10;99.90
28336;DHT22;15592;53.656;7.276;2024-03-02T09:48:56;9.10;99.90
28336;DHT22;15592;53.656;7.276;2024-03-02T09:51:23;9.20;99.90
28336;DHT22;15592;53.656;7.276;2024-03-02T09:53:49;9.10;99.90
28336;DHT22;15592;53.656;7.276;2024-03-02T09:56:15;9.00;99.90
28336;DHT22;15592;53.656;7.276;2024-03-02T09:58:41;9.00;99.90
28336;DHT22;15592;53.656;7.276;2024-03-02T10:01:07;9.10;99.90
28336;DHT22;15592;53.656;7.276;2024-03-02T10:03:36;9.10;99.90
28336;DHT22;15592;53.656;7.276;2024-03-02T10:06:27;9.20;99.90
28336;DHT22;15592;53.656;7.276;2024-03-02T10:08:54;9.30;99.90
28336;DHT22;15592;53.656;7.276;2024-03-02T10:11:30;9.40;99.90
28336;DHT22;15592;53.656;7.276;2024-03-02T10:14:11;9.40;99.90
28336;DHT22;15592;53.656;7.276;2024-03-02T10:16:37;9.40;99.90
28336;DHT22;15592;53.656;7.276;2024-03-02T10:19:22;9.40;99.90
28336;DHT22;15592;53.656;7.276;2024-03-02T10:21:53;9.50;99.90
28336;DHT22;15592;53.656;7.276;2024-03-02T10:24:20;9.60;99.90
28336;DHT22;15592;53.656;7.276;2024-03-02T10:26:45;9.70;99.90
28336;DHT22;15592;53.656;7.276;2024-03-02T10:29:12;9.80;99.90
28336;DHT22;15592;53.656;7.276;2024-03-02T10:31:38;9.90;99.90
28336;DHT22;15592;53.656;7.276;2024-03-02T10:34:05;10.00;99.90
28336;DHT22;15592;53.656;7.276;2024-03-02T10:36:32;10.10;99.90
28336;DHT22;15592;53.656;7.276;2024-03-02T10:39:04;10.10;99.90
28336;DHT22;15592;53.656;7.276;2024-03-02T10:41:37;10.20;99.90
28336;DHT22;15592;53.656;7.276;2024-03-02T10:44:07;10.30;99.90
28336;DHT22;15592;53.656;7.276;2024-03-02T10:46:35;10.40;99.90
28336;DHT22;15592;53.656;7.276;2024-03-02T10:49:03;10.50;99.90
28336;DHT22;15592;53.656;7.276;2024-03-02T10:51:31;10.60;99.90
28336;DHT22;15592;53.656;7.276;2024-03-02T10:54:02;10.70;99.90
28336;DHT22;15592;53.656;7.276;2024-03-02T10:56:33;10.80;99.90
28336;DHT22;15592;53.656;7.276;2024-03-02T10:59:27;10.90;99.90
28336;DHT22;15592;53.656;7.276;2024-03-02T11:05:59;11.00;99.90
28336;DHT22;15592;53.656;7.276;2024-03-02T11:09:18;11.10;99.90
28336;DHT22;15592;53.656;7.276;2024-03-02T11:12:27;11.10;99.90
28336;DHT22;15592;53.656;7.276;2024-03-02T11:14:55;11.10;99.90
28336;DHT22;15592;53.656;7.276;2024-03-02T11:17:21;11.20;99.90
28336;DHT22;15592;53.656;7.276;2024-03-02T11:19:57;11.10;99.90
28336;DHT22;15592;53.656;7.276;2024-03-02T11:22:37;11.10;99.90
28336;DHT22;15592;53.656;7.276;2024-03-02T11:25:03;11.20;99.90
28336;DHT22;15592;53.656;7.276;2024-03-02T11:33:11;11.10;99.90
28336;DHT22;15592;53.656;7.276;2024-03-02T11:35:43;11.20;99.90
28336;DHT22;15592;53.656;7.276;2024-03-02T11:38:12;11.30;99.90
28336;DHT22;15592;53.656;7.276;2024-03-02T11:40:39;11.20;99.90
28336;DHT22;15592;53.656;7.276;2024-03-02T11:43:06;11.20;99.90
28336;DHT22;15592;53.656;7.276;2024-03-02T11:45:33;11.30;99.90
28336;DHT22;15592;53.656;7.276;2024-03-02T11:47:59;11.30;99.90
28336;DHT22;15592;53.656;7.276;2024-03-02T11:50:34;11.30;99.90
28336;DHT22;15592;53.656;7.276;2024-03-02T11:53:07;11.30;99.90
28336;DHT22;15592;53.656;7.276;2024-03-02T11:55:38;11.30;99.90
28336;DHT22;15592;53.656;7.276;2024-03-02T11:58:05;11.20;99.90
28336;DHT22;15592;53.656;7.276;2024-03-02T12:00:31;11.20;99.90
28336;DHT22;15592;53.656;7.276;2024-03-02T12:03:08;11.30;99.90
28336;DHT22;15592;53.656;7.276;2024-03-02T12:05:34;11.40;99.90
28336;DHT22;15592;53.656;7.276;2024-03-02T12:08:04;11.50;99.90
28336;DHT22;15592;53.656;7.276;2024-03-02T12:10:31;11.40;99.90
28336;DHT22;15592;53.656;7.276;2024-03-02T12:13:01;11.40;99.90
28336;DHT22;15592;53.656;7.276;2024-03-02T12:15:29;11.40;99.90
28336;DHT22;15592;53.656;7.276;2024-03-02T12:17:56;11.50;99.90
28336;DHT22;15592;53.656;7.276;2024-03-02T12:20:24;11.40;99.90
28336;DHT22;15592;53.656;7.276;2024-03-02T12:22:51;11.50;99.90
28336;DHT22;15592;53.656;7.276;2024-03-02T12:25:19;11.50;99.90
28336;DHT22;15592;53.656;7.276;2024-03-02T12:27:45;11.50;99.90
28336;DHT22;15592;53.656;7.276;2024-03-02T12:30:11;11.50;99.90
28336;DHT22;15592;53.656;7.276;2024-03-02T12:32:42;11.60;99.90
28336;DHT22;15592;53.656;7.276;2024-03-02T12:35:09;11.60;99.90
28336;DHT22;15592;53.656;7.276;2024-03-02T12:37:43;11.70;99.90
28336;DHT22;15592;53.656;7.276;2024-03-02T12:40:10;11.70;99.90
28336;DHT22;15592;53.656;7.276;2024-03-02T12:42:37;11.70;99.90
28336;DHT22;15592;53.656;7.276;2024-03-02T12:45:02;11.70;99.90
28336;DHT22;15592;53.656;7.276;2024-03-02T12:47:29;11.70;99.90
28336;DHT22;15592;53.656;7.276;2024-03-02T12:49:55;11.70;99.90
28336;DHT22;15592;53.656;7.276;2024-03-02T12:52:21;11.70;99.90
28336;DHT22;15592;53.656;7.276;2024-03-02T12:54:47;11.80;99.90
28336;DHT22;15592;53.656;7.276;2024-03-02T12:57:19;11.80;99.90
28336;DHT22;15592;53.656;7.276;2024-03-02T12:59:45;11.90;99.90
28336;DHT22;15592;53.656;7.276;2024-03-02T13:02:17;11.90;99.90
28336;DHT22;15592;53.656;7.276;2024-03-02T13:04:43;11.90;99.90
28336;DHT22;15592;53.656;7.276;2024-03-02T13:07:10;11.90;99.90
28336;DHT22;15592;53.656;7.276;2024-03-02T13:09:39;11.80;99.90
28336;DHT22;15592;53.656;7.276;2024-03-02T13:12:05;11.80;99.90
28336;DHT22;15592;53.656;7.276;2024-03-02T13:17:17;11.90;99.90
28336;DHT22;15592;53.656;7.276;2024-03-02T13:19:53;11.90;99.90
28336;DHT22;15592;53.656;7.276;2024-03-02T13:22:19;11.90;99.90
28336;DHT22;15592;53.656;7.276;2024-03-02T13:24:45;11.80;99.90
28336;DHT22;15592;53.656;7.276;2024-03-02T13:27:11;11.80;99.90
28336;DHT22;15592;53.656;7.276;2024-03-02T13:29:37;11.80;99.90
28336;DHT22;15592;53.656;7.276;2024-03-02T13:32:03;11.80;99.90
28336;DHT22;15592;53.656;7.276;2024-03-02T13:34:28;11.80;99.90
28336;DHT22;15592;53.656;7.276;2024-03-02T13:36:54;11.70;99.90
28336;DHT22;15592;53.656;7.276;2024-03-02T13:39:19;11.80;99.90
28336;DHT22;15592;53.656;7.276;2024-03-02T13:41:45;11.80;99.90
28336;DHT22;15592;53.656;7.276;2024-03-02T13:44:18;11.80;99.90
28336;DHT22;15592;53.656;7.276;2024-03-02T13:46:44;11.80;99.90
28336;DHT22;15592;53.656;7.276;2024-03-02T13:49:11;11.90;99.90
28336;DHT22;15592;53.656;7.276;2024-03-02T18:12:55;9.00;99.90
28336;DHT22;15592;53.656;7.276;2024-03-02T18:15:21;9.00;99.90
28336;DHT22;15592;53.656;7.276;2024-03-02T18:17:47;9.00;99.90
28336;DHT22;15592;53.656;7.276;2024-03-02T18:20:12;9.00;99.90
28336;DHT22;15592;53.656;7.276;2024-03-02T18:22:38;9.00;99.90
28336;DHT22;15592;53.656;7.276;2024-03-02T18:25:04;8.90;99.90
28336;DHT22;15592;53.656;7.276;2024-03-02T18:27:29;8.90;99.90
28336;DHT22;15592;53.656;7.276;2024-03-02T18:29:55;8.90;99.90
28336;DHT22;15592;53.656;7.276;2024-03-02T18:32:20;8.80;99.90
28336;DHT22;15592;53.656;7.276;2024-03-02T18:34:46;8.80;99.90
28336;DHT22;15592;53.656;7.276;2024-03-02T18:37:12;8.70;99.90
28336;DHT22;15592;53.656;7.276;2024-03-02T18:39:40;8.70;99.90
28336;DHT22;15592;53.656;7.276;2024-03-02T18:42:05;8.70;99.90
28336;DHT22;15592;53.656;7.276;2024-03-02T18:44:31;8.70;99.90
28336;DHT22;15592;53.656;7.276;2024-03-02T18:46:57;8.70;99.90
28336;DHT22;15592;53.656;7.276;2024-03-02T18:49:22;8.70;99.90
28336;DHT22;15592;53.656;7.276;2024-03-02T18:51:49;8.70;99.90
28336;DHT22;15592;53.656;7.276;2024-03-02T18:54:14;8.70;99.90
28336;DHT22;15592;53.656;7.276;2024-03-02T18:56:41;8.70;99.90
28336;DHT22;15592;53.656;7.276;2024-03-02T18:59:07;8.60;99.90
28336;DHT22;15592;53.656;7.276;2024-03-02T19:01:32;8.60;99.90
28336;DHT22;15592;53.656;7.276;2024-03-02T19:03:58;8.70;99.90
28336;DHT22;15592;53.656;7.276;2024-03-02T19:06:24;8.60;99.90
28336;DHT22;15592;53.656;7.276;2024-03-02T19:08:49;8.60;99.90
28336;DHT22;15592;53.656;7.276;2024-03-02T19:11:16;8.60;99.90
28336;DHT22;15592;53.656;7.276;2024-03-02T19:13:42;8.60;99.90
28336;DHT22;15592;53.656;7.276;2024-03-02T19:16:14;8.60;99.90
28336;DHT22;15592;53.656;7.276;2024-03-02T19:18:41;8.60;99.90
28336;DHT22;15592;53.656;7.276;2024-03-02T19:21:08;8.50;99.90
28336;DHT22;15592;53.656;7.276;2024-03-02T19:23:34;8.50;99.90
28336;DHT22;15592;53.656;7.276;2024-03-02T19:26:02;8.50;99.90
28336;DHT22;15592;53.656;7.276;2024-03-02T19:28:29;8.50;99.90
28336;DHT22;15592;53.656;7.276;2024-03-02T19:30:55;8.50;99.90
28336;DHT22;15592;53.656;7.276;2024-03-02T19:33:20;8.40;99.90
28336;DHT22;15592;53.656;7.276;2024-03-02T19:35:46;8.50;99.90
28336;DHT22;15592;53.656;7.276;2024-03-02T19:38:12;8.40;99.90
28336;DHT22;15592;53.656;7.276;2024-03-02T19:40:39;8.40;99.90
28336;DHT22;15592;53.656;7.276;2024-03-02T19:43:04;8.50;99.90
28336;DHT22;15592;53.656;7.276;2024-03-02T19:45:30;8.50;99.90
28336;DHT22;15592;53.656;7.276;2024-03-02T19:47:55;8.50;99.90
28336;DHT22;15592;53.656;7.276;2024-03-02T19:50:21;8.50;99.90
28336;DHT22;15592;53.656;7.276;2024-03-02T19:52:47;8.50;99.90
28336;DHT22;15592;53.656;7.276;2024-03-02T19:55:13;8.50;99.90
28336;DHT22;15592;53.656;7.276;2024-03-02T19:57:39;8.50;99.90
28336;DHT22;15592;53.656;7.276;2024-03-02T20:00:12;8.50;99.90
28336;DHT22;15592;53.656;7.276;2024-03-02T20:02:38;8.50;99.90
28336;DHT22;15592;53.656;7.276;2024-03-02T20:05:05;8.50;99.90
28336;DHT22;15592;53.656;7.276;2024-03-02T20:07:31;8.50;99.90
28336;DHT22;15592;53.656;7.276;2024-03-02T20:09:56;8.50;99.90
28336;DHT22;15592;53.656;7.276;2024-03-02T20:12:22;8.50;99.90
28336;DHT22;15592;53.656;7.276;2024-03-02T20:14:48;8.50;99.90
28336;DHT22;15592;53.656;7.276;2024-03-02T20:17:14;8.60;99.90
28336;DHT22;15592;53.656;7.276;2024-03-02T20:19:40;8.60;99.90
28336;DHT22;15592;53.656;7.276;2024-03-02T20:22:06;8.70;99.90